Time;durP1;ratioP1;P1;durP2;ratioP2;P2;SDS_P1;SDS_P2;PMS_P1;PMS_P2;Temp;Humidity;BMP_temperature;BMP_pressure;BME280_temperature;BME280_humidity;BME280_pressure;Samples;Min_cycle;Max_cycle;Signal;HPM_P1;HPM_P2
2022/09/21 00:01:10;;;;;;;11.75;2.90;;;9.30;99.90;;;;;;5070173;28;20055;-50
2022/09/21 00:03:37;;;;;;;5.25;1.95;;;9.30;99.90;;;;;;5071436;28;20055;-48
2022/09/21 00:06:05;;;;;;;5.88;2.90;;;9.20;99.90;;;;;;5069475;28;20135;-48
2022/09/21 00:08:32;;;;;;;4.05;2.05;;;9.20;99.90;;;;;;5073124;28;20404;-50
2022/09/21 00:10:59;;;;;;;5.05;2.35;;;9.20;99.90;;;;;;5068421;28;20409;-50
2022/09/21 00:13:27;;;;;;;6.13;2.60;;;9.10;99.90;;;;;;5068586;28;20052;-49
2022/09/21 00:15:54;;;;;;;5.32;2.33;;;9.10;99.90;;;;;;5064073;28;20105;-48
2022/09/21 00:18:21;;;;;;;7.80;2.58;;;9.10;99.90;;;;;;5072502;28;20057;-50
2022/09/21 00:20:48;;;;;;;4.60;2.28;;;9.10;99.90;;;;;;5070452;28;20074;-48
2022/09/21 00:23:15;;;;;;;4.97;2.80;;;9.00;99.90;;;;;;5068601;28;20053;-45
2022/09/21 00:25:43;;;;;;;4.63;2.50;;;9.00;99.90;;;;;;5069321;28;20056;-48
2022/09/21 00:28:10;;;;;;;7.63;2.80;;;9.00;99.90;;;;;;5072199;28;20055;-50
2022/09/21 00:30:39;;;;;;;6.53;2.92;;;9.00;99.90;;;;;;5068598;28;20056;-45
2022/09/21 00:33:06;;;;;;;4.72;2.60;;;8.90;99.90;;;;;;5070865;28;21692;-44
2022/09/21 00:35:33;;;;;;;6.30;2.22;;;8.90;99.90;;;;;;5073164;28;20512;-46
2022/09/21 00:38:01;;;;;;;4.30;2.50;;;8.90;99.90;;;;;;5060492;28;20053;-48
2022/09/21 00:40:28;;;;;;;5.85;2.63;;;8.90;99.90;;;;;;5071532;28;20459;-51
2022/09/21 00:43:10;;;;;;;5.38;2.45;;;8.80;99.90;;;;;;5073905;28;20123;-45
2022/09/21 00:45:38;;;;;;;8.60;2.72;;;8.80;99.90;;;;;;5071506;28;20055;-48
2022/09/21 00:48:05;;;;;;;5.55;2.45;;;8.80;99.90;;;;;;5075269;28;20435;-47
2022/09/21 00:50:32;;;;;;;5.47;2.50;;;8.80;99.90;;;;;;5075968;28;20135;-50
2022/09/21 00:52:59;;;;;;;4.15;2.28;;;8.70;99.90;;;;;;5072004;28;20175;-50
2022/09/21 00:55:28;;;;;;;7.35;2.47;;;8.70;99.90;;;;;;5071845;28;20049;-42
2022/09/21 00:57:55;;;;;;;4.93;2.33;;;8.70;99.90;;;;;;5069149;28;20048;-48
2022/09/21 01:00:22;;;;;;;4.75;2.65;;;8.70;99.90;;;;;;5073621;28;20044;-47
2022/09/21 01:02:51;;;;;;;6.53;2.92;;;8.70;99.90;;;;;;5066617;28;20412;-48
2022/09/21 01:05:18;;;;;;;5.32;2.40;;;8.60;99.90;;;;;;5070449;28;20573;-46
2022/09/21 01:07:46;;;;;;;6.43;2.97;;;8.60;99.90;;;;;;5076986;28;20405;-48
2022/09/21 01:10:15;;;;;;;5.75;2.53;;;8.60;99.90;;;;;;5072504;28;20052;-46
2022/09/21 01:12:56;;;;;;;5.57;2.97;;;8.50;99.90;;;;;;5073339;28;20052;-48
2022/09/21 01:15:29;;;;;;;4.13;2.45;;;8.50;99.90;;;;;;5080162;28;20059;-45
2022/09/21 01:18:01;;;;;;;3.55;2.28;;;8.50;99.90;;;;;;5078768;28;20105;-47
2022/09/21 01:20:45;;;;;;;3.78;2.22;;;8.50;99.90;;;;;;5073744;28;20055;-48
2022/09/21 01:23:49;;;;;;;4.60;2.58;;;8.50;99.90;;;;;;5073280;28;20547;-49
2022/09/21 01:26:20;;;;;;;4.85;2.55;;;8.40;99.90;;;;;;5053104;28;20052;-48
2022/09/21 01:28:58;;;;;;;6.33;2.73;;;8.40;99.90;;;;;;5070710;28;20048;-46
2022/09/21 01:31:27;;;;;;;6.78;2.78;;;8.40;99.90;;;;;;5062689;28;20050;-50
2022/09/21 01:33:55;;;;;;;3.40;2.25;;;8.30;99.90;;;;;;5073327;28;20139;-48
2022/09/21 01:36:24;;;;;;;6.93;2.88;;;8.30;99.90;;;;;;5075725;28;20051;-48
2022/09/21 01:38:54;;;;;;;3.92;2.60;;;8.30;99.90;;;;;;5076403;28;20080;-47
2022/09/21 01:41:25;;;;;;;4.30;2.58;;;8.30;99.90;;;;;;5072449;28;20076;-49
2022/09/21 01:43:54;;;;;;;3.70;2.50;;;8.20;99.90;;;;;;5061288;28;20052;-46
2022/09/21 01:46:25;;;;;;;6.03;2.70;;;8.20;99.90;;;;;;5077621;28;20093;-48
2022/09/21 01:48:53;;;;;;;3.10;2.37;;;8.20;99.90;;;;;;5069231;28;20050;-47
2022/09/21 01:51:20;;;;;;;5.38;3.13;;;8.20;99.90;;;;;;5065604;28;20679;-40
2022/09/21 01:53:48;;;;;;;4.03;2.35;;;8.10;99.90;;;;;;5070452;28;20044;-40
2022/09/21 01:56:17;;;;;;;5.05;2.58;;;8.10;99.90;;;;;;5070640;28;20098;-48
2022/09/21 01:58:45;;;;;;;5.43;2.63;;;8.10;99.90;;;;;;5071807;28;20041;-43
2022/09/21 02:01:14;;;;;;;5.45;2.38;;;8.10;99.90;;;;;;5069959;28;20053;-49
2022/09/21 02:03:44;;;;;;;5.30;2.83;;;8.10;99.90;;;;;;5067537;28;20048;-49
2022/09/21 02:06:11;;;;;;;5.18;2.88;;;8.10;99.90;;;;;;5088249;28;20056;-46
2022/09/21 02:08:38;;;;;;;5.68;2.88;;;8.10;99.90;;;;;;5075536;28;20098;-49
2022/09/21 02:11:05;;;;;;;5.45;2.53;;;8.00;99.90;;;;;;5072698;28;20060;-44
2022/09/21 02:13:33;;;;;;;4.57;2.47;;;8.00;99.90;;;;;;5072441;28;20962;-46
2022/09/21 02:16:09;;;;;;;5.18;2.70;;;8.00;99.90;;;;;;5083562;28;20048;-46
2022/09/21 02:18:42;;;;;;;7.63;3.00;;;8.00;99.90;;;;;;5075999;28;20045;-48
2022/09/21 02:21:14;;;;;;;5.03;2.70;;;7.90;99.90;;;;;;5072319;28;20105;-47
2022/09/21 02:23:43;;;;;;;4.18;2.13;;;8.00;99.90;;;;;;5067111;28;20037;-43
2022/09/21 02:26:11;;;;;;;4.07;2.40;;;7.90;99.90;;;;;;5070425;28;20097;-48
2022/09/21 02:28:39;;;;;;;5.30;2.45;;;7.80;99.90;;;;;;5071792;28;20051;-48
2022/09/21 02:31:12;;;;;;;5.25;2.47;;;7.90;99.90;;;;;;5071527;28;20493;-45
2022/09/21 02:33:45;;;;;;;7.53;2.38;;;7.80;99.90;;;;;;5070036;28;20406;-46
2022/09/21 02:36:18;;;;;;;9.00;2.50;;;7.80;99.90;;;;;;5072269;28;20052;-47
2022/09/21 02:38:49;;;;;;;5.90;2.20;;;7.80;99.90;;;;;;5064326;28;20048;-46
2022/09/21 02:41:17;;;;;;;4.68;2.63;;;7.80;99.90;;;;;;5070082;28;20045;-43
2022/09/21 02:43:45;;;;;;;5.70;2.60;;;7.80;99.90;;;;;;5064670;28;20048;-47
2022/09/21 02:46:14;;;;;;;3.70;2.40;;;7.80;99.90;;;;;;5063256;28;20106;-51
2022/09/21 02:48:44;;;;;;;3.97;2.40;;;7.70;99.90;;;;;;5069798;28;20051;-48
2022/09/21 02:51:13;;;;;;;4.68;2.38;;;7.70;99.90;;;;;;5064369;28;20097;-47
2022/09/21 02:53:40;;;;;;;5.75;2.47;;;7.70;99.90;;;;;;5072630;28;20455;-48
2022/09/21 02:56:07;;;;;;;3.75;1.95;;;7.70;99.90;;;;;;5065410;28;20135;-47
2022/09/21 02:58:35;;;;;;;4.70;2.65;;;7.70;99.90;;;;;;5060967;28;20060;-51
2022/09/21 03:01:05;;;;;;;5.35;2.72;;;7.70;99.90;;;;;;5067374;28;20122;-48
2022/09/21 03:03:32;;;;;;;4.50;2.15;;;7.70;99.90;;;;;;5071048;28;20098;-46
2022/09/21 03:05:59;;;;;;;5.82;2.75;;;7.60;99.90;;;;;;5066689;28;20098;-42
2022/09/21 03:08:27;;;;;;;4.65;2.72;;;7.60;99.90;;;;;;5066270;28;20048;-47
2022/09/21 03:10:54;;;;;;;4.05;2.65;;;7.60;99.90;;;;;;5068159;28;20048;-47
2022/09/21 03:13:21;;;;;;;6.50;2.38;;;7.60;99.90;;;;;;5076707;28;20093;-47
2022/09/21 03:15:47;;;;;;;5.25;2.30;;;7.60;99.90;;;;;;5078587;28;20485;-42
2022/09/21 03:18:14;;;;;;;4.03;2.70;;;7.50;99.90;;;;;;5064178;28;20048;-51
2022/09/21 03:20:45;;;;;;;2.63;2.20;;;7.50;99.90;;;;;;5066612;28;20063;-45
2022/09/21 03:23:12;;;;;;;3.08;2.13;;;7.50;99.90;;;;;;5071179;28;20053;-50
2022/09/21 03:25:40;;;;;;;5.38;2.17;;;7.50;99.90;;;;;;5071746;28;20052;-46
2022/09/21 03:28:08;;;;;;;3.85;2.47;;;7.50;99.90;;;;;;5064134;28;20053;-48
2022/09/21 03:30:35;;;;;;;3.75;2.38;;;7.40;99.90;;;;;;5068706;28;20094;-51
2022/09/21 03:33:04;;;;;;;5.40;2.30;;;7.40;99.90;;;;;;5068007;28;20049;-47
2022/09/21 03:35:32;;;;;;;5.60;2.70;;;7.40;99.90;;;;;;5069651;28;20057;-48
2022/09/21 03:37:59;;;;;;;3.20;2.17;;;7.40;99.90;;;;;;5068081;28;20477;-45
2022/09/21 03:40:26;;;;;;;3.53;2.13;;;7.40;99.90;;;;;;5061773;28;20381;-43
2022/09/21 03:42:55;;;;;;;4.53;2.25;;;7.30;99.90;;;;;;5065939;28;20324;-47
2022/09/21 03:45:22;;;;;;;3.75;2.25;;;7.30;99.90;;;;;;5062094;28;20052;-45
2022/09/21 03:47:48;;;;;;;3.00;2.05;;;7.30;99.90;;;;;;5069178;28;20125;-45
2022/09/21 03:50:16;;;;;;;3.63;2.30;;;7.30;99.90;;;;;;5073352;28;20045;-44
2022/09/21 03:52:42;;;;;;;5.43;2.30;;;7.30;99.90;;;;;;5067995;28;20049;-46
2022/09/21 03:55:09;;;;;;;2.65;2.15;;;7.30;99.90;;;;;;5069765;28;20106;-48
2022/09/21 03:57:37;;;;;;;4.32;2.55;;;7.30;99.90;;;;;;5061261;28;20055;-47
2022/09/21 04:00:07;;;;;;;5.70;2.40;;;7.30;99.90;;;;;;5069716;28;20084;-42
2022/09/21 04:02:34;;;;;;;5.05;2.17;;;7.20;99.90;;;;;;5069164;28;20059;-50
2022/09/21 04:05:01;;;;;;;5.35;2.63;;;7.20;99.90;;;;;;5073661;28;20484;-48
2022/09/21 04:07:31;;;;;;;3.75;2.20;;;7.20;99.90;;;;;;5075052;28;20053;-45
2022/09/21 04:09:57;;;;;;;4.63;2.22;;;7.10;99.90;;;;;;5072808;28;20074;-50
2022/09/21 04:12:24;;;;;;;2.72;2.13;;;7.10;99.90;;;;;;5068562;28;20143;-51
2022/09/21 04:14:51;;;;;;;3.78;2.10;;;7.10;99.90;;;;;;5068919;28;20048;-50
2022/09/21 04:17:20;;;;;;;3.75;2.10;;;7.10;99.90;;;;;;5075288;28;20044;-45
2022/09/21 04:19:47;;;;;;;3.85;2.30;;;7.00;99.90;;;;;;5071037;28;20044;-49
2022/09/21 04:22:14;;;;;;;5.13;2.20;;;7.00;99.90;;;;;;5075241;28;20067;-50
2022/09/21 04:24:41;;;;;;;3.50;2.55;;;7.00;99.90;;;;;;5075975;28;20060;-51
2022/09/21 04:27:07;;;;;;;4.85;2.33;;;7.00;99.90;;;;;;5081598;28;20508;-48
2022/09/21 04:29:34;;;;;;;3.78;2.10;;;7.00;99.90;;;;;;5065230;28;20340;-48
2022/09/21 04:32:01;;;;;;;4.85;2.78;;;7.00;99.90;;;;;;5074122;28;20125;-48
2022/09/21 04:34:30;;;;;;;3.42;2.25;;;7.00;99.90;;;;;;5070502;28;20068;-48
2022/09/21 04:36:57;;;;;;;2.78;2.08;;;6.90;99.90;;;;;;5079298;28;20066;-51
2022/09/21 04:39:24;;;;;;;3.20;2.10;;;6.90;99.90;;;;;;5080949;28;20544;-46
2022/09/21 04:41:50;;;;;;;2.78;1.98;;;6.90;99.90;;;;;;5075881;28;20150;-45
2022/09/21 04:44:18;;;;;;;7.95;2.35;;;6.90;99.90;;;;;;5080460;28;20044;-48
2022/09/21 04:46:45;;;;;;;4.82;2.70;;;6.90;99.90;;;;;;5071477;28;20500;-47
2022/09/21 04:49:11;;;;;;;3.67;2.20;;;6.90;99.90;;;;;;5078510;28;20518;-50
2022/09/21 04:51:39;;;;;;;3.05;2.10;;;6.80;99.90;;;;;;5084394;28;20056;-45
2022/09/21 04:54:06;;;;;;;3.67;1.90;;;6.80;99.90;;;;;;5073905;28;20492;-49
2022/09/21 04:56:33;;;;;;;3.05;2.25;;;6.80;99.90;;;;;;5074759;28;20059;-49
2022/09/21 04:59:00;;;;;;;4.63;2.08;;;6.80;99.90;;;;;;5072440;28;20041;-48
2022/09/21 05:01:27;;;;;;;3.85;2.30;;;6.80;99.90;;;;;;5071632;28;20480;-46
2022/09/21 05:03:54;;;;;;;2.85;2.30;;;6.80;99.90;;;;;;5064771;28;20055;-49
2022/09/21 05:06:21;;;;;;;3.03;1.88;;;6.80;99.90;;;;;;5083632;28;20094;-47
2022/09/21 05:11:34;;;;;;;2.42;2.00;;;6.70;99.90;;;;;;5064781;28;20044;-39
2022/09/21 05:14:01;;;;;;;5.43;2.30;;;6.60;99.90;;;;;;5071663;28;20044;-47
2022/09/21 05:16:28;;;;;;;3.67;1.90;;;6.70;99.90;;;;;;5083906;28;20076;-49
2022/09/21 05:18:55;;;;;;;3.55;2.30;;;6.60;99.90;;;;;;5065681;28;20048;-44
2022/09/21 05:21:21;;;;;;;4.90;2.28;;;6.60;99.90;;;;;;5071328;28;20471;-41
2022/09/21 05:23:50;;;;;;;3.55;2.08;;;6.60;99.90;;;;;;5068166;28;20045;-49
2022/09/21 05:26:16;;;;;;;5.55;2.20;;;6.60;99.90;;;;;;5073894;28;20083;-51
2022/09/21 05:28:44;;;;;;;5.25;2.67;;;6.70;99.90;;;;;;5070062;28;20127;-49
2022/09/21 05:31:26;;;;;;;2.83;1.98;;;6.70;99.90;;;;;;5070288;28;20044;-47
2022/09/21 05:33:54;;;;;;;4.30;2.20;;;6.60;99.90;;;;;;5071491;28;20045;-50
2022/09/21 05:36:30;;;;;;;3.20;1.90;;;6.60;99.90;;;;;;5074526;28;20057;-48
2022/09/21 05:38:59;;;;;;;3.55;2.40;;;6.60;99.90;;;;;;5088075;28;20553;-48
2022/09/21 05:41:26;;;;;;;5.10;2.25;;;6.60;99.90;;;;;;5088720;28;20404;-50
2022/09/21 05:43:54;;;;;;;6.25;2.55;;;6.60;99.90;;;;;;5069956;28;20072;-46
2022/09/21 05:46:29;;;;;;;8.35;2.20;;;6.60;99.90;;;;;;5070662;28;20447;-41
2022/09/21 05:48:58;;;;;;;10.30;2.70;;;6.60;99.90;;;;;;5070346;28;20048;-49
2022/09/21 05:51:29;;;;;;;3.15;2.10;;;6.60;99.90;;;;;;5060236;28;20510;-47
2022/09/21 05:54:00;;;;;;;4.38;2.55;;;6.60;99.90;;;;;;5070440;28;20060;-46
2022/09/21 05:56:40;;;;;;;4.00;2.78;;;6.70;99.90;;;;;;5080406;28;20059;-47
2022/09/21 05:59:15;;;;;;;5.00;3.47;;;6.60;99.90;;;;;;5075217;28;20044;-50
2022/09/21 06:01:57;;;;;;;8.50;3.20;;;6.60;99.90;;;;;;5070883;28;20041;-44
2022/09/21 06:04:24;;;;;;;6.00;2.95;;;6.70;99.90;;;;;;5071887;28;20447;-45
2022/09/21 06:06:51;;;;;;;5.00;3.47;;;6.60;99.90;;;;;;5073627;28;20102;-48
2022/09/21 06:09:20;;;;;;;9.93;3.00;;;6.70;99.90;;;;;;5061419;28;20048;-48
2022/09/21 06:11:47;;;;;;;6.68;2.70;;;6.70;99.90;;;;;;5071811;28;20084;-43
2022/09/21 06:14:14;;;;;;;5.32;2.40;;;6.70;99.90;;;;;;5070944;28;20052;-38
2022/09/21 06:16:41;;;;;;;7.93;3.67;;;6.70;99.90;;;;;;5071060;28;20119;-45
2022/09/21 06:19:11;;;;;;;6.03;3.50;;;6.70;99.90;;;;;;5070958;28;20052;-45
2022/09/21 06:21:37;;;;;;;7.57;3.83;;;6.80;99.90;;;;;;5072133;28;20090;-46
2022/09/21 06:24:05;;;;;;;8.18;3.40;;;6.80;99.90;;;;;;5071468;28;20057;-47
2022/09/21 06:26:33;;;;;;;7.72;3.50;;;6.80;99.90;;;;;;5070843;28;20442;-46
2022/09/21 06:29:00;;;;;;;4.43;2.80;;;6.90;99.90;;;;;;5073086;28;20056;-41
2022/09/21 06:31:27;;;;;;;4.25;2.13;;;6.90;99.90;;;;;;5070374;28;20106;-46
2022/09/21 06:33:53;;;;;;;4.00;2.72;;;6.90;99.90;;;;;;5071597;28;20651;-46
2022/09/21 06:36:20;;;;;;;4.72;3.20;;;7.00;99.90;;;;;;5072922;28;20439;-48
2022/09/21 06:38:47;;;;;;;8.27;3.97;;;7.10;99.90;;;;;;5071812;28;20381;-46
2022/09/21 06:41:14;;;;;;;9.43;4.13;;;7.10;99.90;;;;;;5078487;28;20059;-49
2022/09/21 06:43:42;;;;;;;5.93;3.75;;;7.20;99.90;;;;;;5091942;28;20052;-42
2022/09/21 06:46:12;;;;;;;4.38;2.72;;;7.30;99.90;;;;;;5092712;28;20060;-43
2022/09/21 06:48:39;;;;;;;3.97;2.75;;;7.30;99.90;;;;;;5081017;28;20110;-46
2022/09/21 06:51:06;;;;;;;5.18;2.78;;;7.40;99.90;;;;;;5072963;28;20045;-46
2022/09/21 06:53:33;;;;;;;5.20;2.38;;;7.50;99.90;;;;;;5068359;28;20056;-46
2022/09/21 06:56:01;;;;;;;3.67;2.22;;;7.70;99.90;;;;;;5072505;28;20091;-49
2022/09/21 06:58:29;;;;;;;7.03;2.53;;;7.70;99.90;;;;;;5074171;28;20049;-48
2022/09/21 07:00:57;;;;;;;5.13;2.42;;;7.80;99.90;;;;;;5071096;28;20169;-36
2022/09/21 07:03:24;;;;;;;12.85;2.92;;;7.90;99.90;;;;;;5066344;28;20061;-48
2022/09/21 07:05:51;;;;;;;10.25;2.90;;;8.10;99.90;;;;;;5070816;28;20052;-50
2022/09/21 07:08:18;;;;;;;8.35;2.83;;;8.30;99.90;;;;;;5050577;28;20053;-49
2022/09/21 07:10:44;;;;;;;9.57;2.90;;;8.40;99.90;;;;;;5067795;28;20680;-50
2022/09/21 07:13:11;;;;;;;6.85;2.55;;;8.60;99.90;;;;;;5070124;28;20495;-49
2022/09/21 07:15:38;;;;;;;6.60;2.83;;;8.70;99.90;;;;;;5070665;28;20485;-50
2022/09/21 07:18:12;;;;;;;6.20;2.60;;;8.90;99.90;;;;;;5070986;28;20098;-45
2022/09/21 07:20:39;;;;;;;5.15;2.50;;;9.10;99.90;;;;;;5074481;28;20048;-46
2022/09/21 07:23:10;;;;;;;9.60;3.22;;;9.30;99.90;;;;;;5091373;28;20055;-48
2022/09/21 07:25:38;;;;;;;6.45;2.92;;;9.50;99.90;;;;;;5092154;28;20063;-49
2022/09/21 07:28:05;;;;;;;7.38;3.20;;;9.60;99.90;;;;;;5092178;28;20384;-42
2022/09/21 07:30:32;;;;;;;7.43;3.22;;;9.80;99.90;;;;;;5073360;28;20098;-39
2022/09/21 07:32:58;;;;;;;8.13;3.70;;;10.00;99.90;;;;;;5071614;28;20479;-46
2022/09/21 07:35:27;;;;;;;8.50;2.97;;;10.20;99.90;;;;;;5071952;28;20052;-49
2022/09/21 07:37:55;;;;;;;8.63;3.33;;;10.40;99.90;;;;;;5069364;28;20106;-46
2022/09/21 07:40:22;;;;;;;13.45;3.95;;;10.60;99.90;;;;;;5071807;28;20489;-46
2022/09/21 07:42:49;;;;;;;13.70;4.25;;;10.80;99.90;;;;;;5072297;28;20071;-47
2022/09/21 07:45:16;;;;;;;14.52;4.07;;;11.00;99.90;;;;;;5071881;28;20056;-49
2022/09/21 07:47:45;;;;;;;12.10;4.30;;;11.20;99.90;;;;;;5066557;28;20064;-49
2022/09/21 07:50:12;;;;;;;12.32;4.07;;;11.30;99.90;;;;;;5070190;28;20048;-48
2022/09/21 07:52:40;;;;;;;8.32;3.60;;;11.50;99.90;;;;;;5071785;28;20124;-51
2022/09/21 07:55:08;;;;;;;11.30;3.35;;;11.70;99.90;;;;;;5071706;28;20051;-48
2022/09/21 08:00:19;;;;;;;13.48;3.13;;;12.00;99.90;;;;;;5069058;28;20135;-47
2022/09/21 08:02:46;;;;;;;10.27;2.75;;;12.30;99.90;;;;;;5070741;28;20049;-46
2022/09/21 08:05:13;;;;;;;13.88;3.10;;;12.40;99.90;;;;;;5070216;28;20106;-45
2022/09/21 08:07:41;;;;;;;13.07;2.65;;;12.60;99.90;;;;;;5085146;28;20056;-47
2022/09/21 08:10:09;;;;;;;9.98;2.50;;;12.70;99.90;;;;;;5076036;28;20118;-45
2022/09/21 08:12:36;;;;;;;9.38;2.20;;;12.90;99.90;;;;;;5070438;28;20097;-51
2022/09/21 08:15:04;;;;;;;6.70;1.98;;;13.00;99.90;;;;;;5070919;28;20052;-43
2022/09/21 08:17:30;;;;;;;14.43;2.85;;;13.20;99.90;;;;;;5071707;28;20048;-47
2022/09/21 08:19:57;;;;;;;9.93;2.63;;;13.40;99.90;;;;;;5069795;28;20213;-47
2022/09/21 08:22:24;;;;;;;12.73;2.38;;;13.60;99.90;;;;;;5070133;28;20381;-48
2022/09/21 08:24:54;;;;;;;16.08;2.13;;;13.70;99.90;;;;;;5070745;28;20061;-47
2022/09/21 08:27:23;;;;;;;10.65;2.00;;;13.90;99.90;;;;;;5071838;28;20442;-45
2022/09/21 08:29:50;;;;;;;11.50;2.20;;;14.00;99.90;;;;;;5070347;28;20056;-46
2022/09/21 08:32:17;;;;;;;15.48;2.35;;;14.20;99.90;;;;;;5068636;28;20098;-46
2022/09/21 08:34:44;;;;;;;8.48;1.95;;;14.30;99.90;;;;;;5074958;28;20043;-45
2022/09/21 08:37:11;;;;;;;13.40;2.30;;;14.40;99.90;;;;;;5091262;28;20067;-47
2022/09/21 08:39:37;;;;;;;11.75;1.73;;;14.60;99.90;;;;;;5090261;28;20705;-47
2022/09/21 08:42:18;;;;;;;10.20;2.80;;;14.70;99.90;;;;;;5091508;28;20089;-48
2022/09/21 08:44:47;;;;;;;8.48;1.75;;;14.90;99.90;;;;;;5090392;28;20048;-49
2022/09/21 08:47:15;;;;;;;9.30;1.63;;;15.00;99.90;;;;;;5089810;28;20051;-50
2022/09/21 08:49:45;;;;;;;8.27;1.48;;;15.10;99.90;;;;;;5069734;28;20484;-48
2022/09/21 08:52:13;;;;;;;8.43;1.85;;;15.30;99.90;;;;;;5072044;28;20121;-49
2022/09/21 08:54:43;;;;;;;11.57;1.77;;;15.40;99.90;;;;;;5072797;28;20540;-47
2022/09/21 08:57:13;;;;;;;9.85;1.70;;;15.60;99.90;;;;;;5063898;28;20060;-45
2022/09/21 08:59:41;;;;;;;11.98;1.73;;;15.70;99.90;;;;;;5053386;28;20481;-46
2022/09/21 09:02:20;;;;;;;5.32;1.27;;;15.70;99.90;;;;;;5059154;28;20053;-46
2022/09/21 09:04:51;;;;;;;13.30;1.95;;;15.80;99.90;;;;;;5094747;28;20468;-48
2022/09/21 09:07:26;;;;;;;8.25;1.70;;;16.00;99.90;;;;;;5076915;28;20061;-42
2022/09/21 09:10:04;;;;;;;10.85;1.58;;;16.20;99.90;;;;;;5073443;28;20056;-50
2022/09/21 09:12:39;;;;;;;11.95;1.98;;;16.40;99.90;;;;;;5074392;28;20438;-46
2022/09/21 09:15:21;;;;;;;6.40;1.08;;;16.50;99.40;;;;;;5072782;28;20076;-46
2022/09/21 09:17:52;;;;;;;7.10;1.08;;;16.60;98.70;;;;;;5074421;28;20056;-45
2022/09/21 09:20:20;;;;;;;6.82;1.40;;;16.70;98.60;;;;;;5073221;28;20052;-48
2022/09/21 09:22:48;;;;;;;6.45;1.20;;;16.80;97.90;;;;;;5073233;28;20056;-51
2022/09/21 09:25:18;;;;;;;4.50;1.17;;;16.90;97.40;;;;;;5074267;28;20044;-41
2022/09/21 09:27:46;;;;;;;10.38;1.63;;;17.00;97.20;;;;;;5082579;28;20055;-42
2022/09/21 09:30:16;;;;;;;7.63;1.30;;;17.10;96.90;;;;;;5079759;28;20086;-50
2022/09/21 09:32:47;;;;;;;6.45;1.30;;;17.20;96.50;;;;;;5093408;28;20048;-48
2022/09/21 09:35:19;;;;;;;5.80;1.23;;;17.40;96.00;;;;;;5094415;28;20047;-46
2022/09/21 09:37:46;;;;;;;4.65;1.10;;;17.40;95.40;;;;;;5075914;28;20454;-46
2022/09/21 09:40:13;;;;;;;10.48;1.35;;;17.40;95.60;;;;;;5073262;28;20044;-42
2022/09/21 09:42:46;;;;;;;10.38;1.55;;;17.30;95.50;;;;;;5073978;28;20049;-45
2022/09/21 09:45:20;;;;;;;9.13;1.55;;;17.30;95.80;;;;;;5073824;28;20052;-44
2022/09/21 09:47:54;;;;;;;9.25;1.30;;;17.30;95.40;;;;;;5072939;28;20087;-45
2022/09/21 09:50:23;;;;;;;7.68;1.17;;;17.40;95.50;;;;;;5085061;28;20048;-44
2022/09/21 09:52:53;;;;;;;8.25;1.30;;;17.50;95.20;;;;;;5094099;28;20139;-44
2022/09/21 09:55:23;;;;;;;7.15;1.35;;;17.70;95.00;;;;;;5094395;28;20048;-45
2022/09/21 09:57:51;;;;;;;8.70;1.55;;;17.90;94.60;;;;;;5093702;28;20532;-47
2022/09/21 10:00:19;;;;;;;10.10;1.27;;;18.10;94.30;;;;;;5079634;28;20048;-43
2022/09/21 10:02:47;;;;;;;10.75;1.55;;;18.20;93.60;;;;;;5093818;28;20109;-43
2022/09/21 10:05:20;;;;;;;7.63;1.13;;;18.40;93.30;;;;;;5083490;28;20055;-46
2022/09/21 10:07:47;;;;;;;10.98;1.30;;;18.40;92.80;;;;;;5072385;28;20084;-46
2022/09/21 10:10:23;;;;;;;5.45;1.42;;;18.40;92.40;;;;;;5070935;28;20052;-41
2022/09/21 10:12:56;;;;;;;11.60;1.48;;;18.50;92.60;;;;;;5077186;28;20048;-46
2022/09/21 10:15:24;;;;;;;10.98;1.10;;;18.60;92.80;;;;;;5071376;28;20056;-46
2022/09/21 10:17:57;;;;;;;7.70;1.20;;;18.70;92.00;;;;;;5070688;28;20453;-45
2022/09/21 10:20:24;;;;;;;11.07;1.40;;;18.90;92.40;;;;;;5072064;28;20052;-45
2022/09/21 10:22:54;;;;;;;9.93;1.42;;;19.00;92.00;;;;;;5091465;28;20104;-45
2022/09/21 10:25:21;;;;;;;6.57;1.17;;;19.10;91.60;;;;;;5090382;28;20051;-45
2022/09/21 10:27:49;;;;;;;4.90;0.93;;;19.20;91.50;;;;;;5058097;28;20041;-39
2022/09/21 10:30:32;;;;;;;6.13;0.80;;;19.30;91.20;;;;;;5053050;28;20099;-42
2022/09/21 10:33:00;;;;;;;6.38;1.20;;;19.40;90.80;;;;;;5066275;28;20118;-44
2022/09/21 10:35:27;;;;;;;5.68;1.25;;;19.50;90.90;;;;;;5078704;28;20123;-48
2022/09/21 10:38:09;;;;;;;4.72;1.15;;;19.50;90.40;;;;;;5074787;28;20052;-44
2022/09/21 10:40:36;;;;;;;7.43;1.17;;;19.60;89.80;;;;;;5072429;28;20462;-46
2022/09/21 10:43:03;;;;;;;7.53;1.10;;;19.60;89.60;;;;;;5077240;28;20126;-46
2022/09/21 10:45:33;;;;;;;6.50;0.93;;;19.70;89.10;;;;;;5088661;28;20576;-44
2022/09/21 10:48:08;;;;;;;5.57;1.27;;;19.80;88.60;;;;;;5093223;28;20048;-36
2022/09/21 10:50:36;;;;;;;5.65;0.95;;;19.90;88.20;;;;;;5057364;28;20132;-48
2022/09/21 10:53:20;;;;;;;6.18;0.80;;;20.00;87.60;;;;;;5071927;28;20044;-42
2022/09/21 10:55:50;;;;;;;9.27;1.40;;;20.10;85.60;;;;;;5088439;28;20415;-46
2022/09/21 10:58:17;;;;;;;5.25;1.10;;;20.10;85.80;;;;;;5080777;28;20048;-50
2022/09/21 11:00:47;;;;;;;5.82;0.93;;;20.20;85.30;;;;;;5087212;28;20044;-41
2022/09/21 11:03:41;;;;;;;6.63;0.90;;;20.20;84.20;;;;;;5075251;28;20056;-45
2022/09/21 11:06:11;;;;;;;5.75;0.82;;;20.30;85.80;;;;;;5073516;28;20059;-44
2022/09/21 11:08:41;;;;;;;4.78;0.90;;;20.40;85.10;;;;;;5086588;28;20047;-47
2022/09/21 11:11:24;;;;;;;5.82;1.30;;;20.50;83.40;;;;;;5081413;28;20491;-49
2022/09/21 11:13:55;;;;;;;6.53;1.30;;;20.60;82.60;;;;;;5077209;28;20052;-44
2022/09/21 11:16:28;;;;;;;4.05;0.80;;;20.70;82.30;;;;;;5079140;28;20109;-47
2022/09/21 11:18:58;;;;;;;6.43;1.25;;;20.80;81.50;;;;;;5072755;28;20500;-48
2022/09/21 11:21:30;;;;;;;7.60;1.13;;;20.80;81.30;;;;;;5088480;28;20075;-45
2022/09/21 11:24:02;;;;;;;5.13;1.10;;;20.80;80.70;;;;;;5073096;28;20045;-46
2022/09/21 11:26:30;;;;;;;6.22;0.80;;;20.90;80.10;;;;;;5071914;28;20056;-50
2022/09/21 11:28:59;;;;;;;6.80;1.17;;;20.90;79.20;;;;;;5072795;28;20102;-48
2022/09/21 11:31:47;;;;;;;10.05;1.08;;;20.90;79.90;;;;;;5071663;28;20141;-48
2022/09/21 11:34:31;;;;;;;6.55;1.40;;;21.10;78.70;;;;;;5072684;28;20557;-45
2022/09/21 11:37:07;;;;;;;6.82;1.42;;;21.10;79.00;;;;;;5071806;28;20071;-48
2022/09/21 11:39:37;;;;;;;7.10;1.30;;;21.10;77.70;;;;;;5071191;28;20051;-49
2022/09/21 11:42:13;;;;;;;6.67;1.27;;;21.20;76.90;;;;;;5071511;28;20055;-47
2022/09/21 11:44:49;;;;;;;6.50;1.00;;;21.20;78.40;;;;;;5072853;28;20393;-48
2022/09/21 11:47:56;;;;;;;5.35;1.30;;;21.40;77.90;;;;;;5071227;28;20060;-50
2022/09/21 11:50:32;;;;;;;7.05;1.00;;;21.50;78.10;;;;;;4994158;28;20052;-50
2022/09/21 11:53:13;;;;;;;4.38;1.13;;;21.60;77.50;;;;;;5061667;28;20095;-47
2022/09/21 11:56:01;;;;;;;5.32;1.20;;;21.70;76.80;;;;;;5071445;28;20057;-46
2022/09/21 11:58:30;;;;;;;5.68;1.02;;;21.80;75.60;;;;;;5070694;28;20048;-46
2022/09/21 12:01:07;;;;;;;4.78;1.08;;;21.70;75.00;;;;;;5072375;28;20101;-49
2022/09/21 12:03:44;;;;;;;4.43;0.95;;;21.70;74.40;;;;;;5072437;28;20109;-45
2022/09/21 12:06:16;;;;;;;7.35;1.20;;;21.70;73.00;;;;;;5072349;28;20053;-47
2022/09/21 12:09:11;;;;;;;5.32;0.70;;;21.60;71.10;;;;;;5071286;28;20052;-45
2022/09/21 12:11:39;;;;;;;6.72;0.90;;;21.70;73.80;;;;;;5072135;28;20135;-48
2022/09/21 12:14:11;;;;;;;4.57;1.02;;;21.80;73.60;;;;;;5072371;28;20102;-46
2022/09/21 12:16:41;;;;;;;6.85;1.13;;;21.80;72.70;;;;;;5072433;28;20056;-47
2022/09/21 12:19:14;;;;;;;6.35;1.58;;;21.70;72.70;;;;;;5070316;28;20053;-46
2022/09/21 12:21:42;;;;;;;4.28;0.90;;;21.60;70.40;;;;;;5072224;28;20051;-48
2022/09/21 12:24:13;;;;;;;4.00;1.00;;;21.50;71.10;;;;;;5068467;28;20393;-44
2022/09/21 12:26:42;;;;;;;9.15;1.10;;;21.60;72.20;;;;;;5071721;28;20052;-48
2022/09/21 12:29:14;;;;;;;4.88;0.80;;;21.60;70.80;;;;;;5073289;28;20508;-46
2022/09/21 12:31:44;;;;;;;4.60;0.95;;;21.60;71.90;;;;;;5064888;28;20052;-50
2022/09/21 12:34:14;;;;;;;2.93;0.67;;;21.70;71.30;;;;;;5074459;28;20048;-48
2022/09/21 12:36:43;;;;;;;7.55;0.80;;;21.80;70.00;;;;;;5054733;28;20337;-45
2022/09/21 12:39:13;;;;;;;6.95;1.23;;;21.80;69.70;;;;;;5059214;28;20053;-46
2022/09/21 12:41:42;;;;;;;5.70;1.20;;;21.70;68.90;;;;;;5071237;28;20492;-47
2022/09/21 12:44:15;;;;;;;4.82;0.90;;;21.50;69.70;;;;;;5071072;28;20114;-49
2022/09/21 12:46:46;;;;;;;4.78;1.10;;;21.50;70.60;;;;;;5073575;28;20056;-42
2022/09/21 12:49:15;;;;;;;5.00;1.10;;;21.40;69.80;;;;;;5070977;28;20049;-48
2022/09/21 12:51:43;;;;;;;6.30;1.30;;;21.50;69.50;;;;;;5075702;28;20420;-49
2022/09/21 12:54:16;;;;;;;5.72;1.30;;;21.50;70.30;;;;;;5075253;28;20397;-50
2022/09/21 12:56:44;;;;;;;5.65;1.13;;;21.60;70.00;;;;;;5072541;28;20052;-47
2022/09/21 12:59:18;;;;;;;6.25;1.23;;;21.60;69.30;;;;;;5070246;28;20110;-49
2022/09/21 13:01:47;;;;;;;4.68;0.80;;;21.70;70.20;;;;;;5070069;28;20045;-45
2022/09/21 13:04:43;;;;;;;6.13;1.23;;;21.80;70.00;;;;;;5090388;28;20102;-49
2022/09/21 13:07:46;;;;;;;7.40;1.60;;;21.80;67.50;;;;;;5072388;28;20060;-49
2022/09/21 13:10:18;;;;;;;4.50;1.20;;;21.70;69.30;;;;;;5055864;28;20056;-48